createdAt,value
2023-04-13T00:01:11.163Z,94.38
2023-04-13T00:03:39.140Z,94.02
2023-04-13T00:06:06.736Z,94.13
2023-04-13T00:08:35.788Z,93.77
2023-04-13T00:11:04.292Z,93.99
2023-04-13T00:13:30.879Z,94.02
2023-04-13T00:15:57.353Z,93.97
2023-04-13T00:18:24.244Z,94.02
2023-04-13T00:20:50.736Z,94.06
2023-04-13T00:23:18.009Z,94.04
2023-04-13T00:25:44.559Z,93.95
2023-04-13T00:28:11.803Z,93.95
2023-04-13T00:30:38.295Z,94.12
2023-04-13T00:33:04.990Z,93.94
2023-04-13T00:35:31.926Z,93.60
2023-04-13T00:37:58.792Z,93.88
2023-04-13T00:40:25.300Z,93.88
2023-04-13T00:42:51.923Z,93.97
2023-04-13T00:45:19.778Z,94.08
2023-04-13T00:47:48.580Z,94.39
2023-04-13T00:50:18.418Z,94.33
2023-04-13T00:52:45.337Z,94.08
2023-04-13T00:55:12.297Z,94.06
2023-04-13T00:57:40.764Z,94.19
2023-04-13T01:00:09.518Z,94.36
2023-04-13T01:02:42.117Z,94.48
2023-04-13T01:05:12.267Z,94.16
2023-04-13T01:07:59.308Z,95.00
2023-04-13T01:10:54.339Z,94.32
2023-04-13T01:13:52.116Z,94.83
2023-04-13T01:16:30.590Z,94.48
2023-04-13T01:18:57.457Z,94.02
2023-04-13T01:21:26.155Z,93.80
2023-04-13T01:23:58.782Z,93.88
2023-04-13T01:26:49.012Z,94.04
2023-04-13T01:29:15.818Z,93.69
2023-04-13T01:31:42.985Z,93.56
2023-04-13T01:34:09.797Z,93.43
2023-04-13T01:36:39.877Z,93.55
2023-04-13T01:39:06.309Z,93.73
2023-04-13T01:41:32.721Z,93.39
2023-04-13T01:43:59.557Z,93.46
2023-04-13T01:46:29.866Z,93.40
2023-04-13T01:49:01.641Z,92.98
2023-04-13T01:51:34.605Z,92.94
2023-04-13T01:54:12.893Z,93.00
2023-04-13T01:56:40.688Z,92.16
2023-04-13T01:59:07.718Z,91.76
2023-04-13T02:01:34.335Z,91.83
2023-04-13T02:04:02.739Z,91.75
2023-04-13T02:06:29.649Z,91.58
2023-04-13T02:08:56.115Z,91.77
2023-04-13T02:11:22.655Z,91.68
2023-04-13T02:13:49.616Z,91.67
2023-04-13T02:16:16.186Z,91.54
2023-04-13T02:18:42.938Z,91.88
2023-04-13T02:21:09.719Z,92.03
2023-04-13T02:23:37.785Z,92.19
2023-04-13T02:26:06.757Z,91.87
2023-04-13T02:28:33.603Z,91.98
2023-04-13T02:31:00.330Z,91.80
2023-04-13T02:33:32.753Z,91.68
2023-04-13T02:36:00.379Z,91.27
2023-04-13T02:38:30.561Z,91.55
2023-04-13T02:41:01.905Z,91.53
2023-04-13T02:43:31.323Z,90.99
2023-04-13T02:45:58.192Z,91.38
2023-04-13T02:48:25.662Z,91.68
2023-04-13T02:50:53.320Z,91.71
2023-04-13T02:53:20.032Z,91.82
2023-04-13T02:55:50.129Z,92.12
2023-04-13T02:58:16.619Z,92.32
2023-04-13T03:00:44.498Z,92.46
2023-04-13T03:03:11.086Z,92.61
2023-04-13T03:05:38.744Z,92.81
2023-04-13T03:08:05.274Z,92.83
2023-04-13T03:10:31.846Z,93.13
2023-04-13T03:12:58.772Z,93.21
2023-04-13T03:15:25.249Z,93.46
2023-04-13T03:17:51.775Z,93.52
2023-04-13T03:20:20.709Z,93.49
2023-04-13T03:22:47.124Z,93.52
2023-04-13T03:25:13.528Z,93.90
2023-04-13T03:27:40.003Z,93.57
2023-04-13T03:30:07.651Z,94.00
2023-04-13T03:32:34.471Z,93.62
2023-04-13T03:35:01.799Z,94.00
2023-04-13T03:37:30.495Z,94.23
2023-04-13T03:39:58.406Z,95.08
2023-04-13T03:42:24.931Z,95.27
2023-04-13T03:44:51.465Z,95.36
2023-04-13T03:47:18.093Z,95.32
2023-04-13T03:49:44.575Z,95.19
2023-04-13T03:52:11.092Z,95.44
2023-04-13T03:54:38.129Z,94.93
2023-04-13T03:57:05.054Z,95.04
2023-04-13T03:59:31.559Z,95.12
2023-04-13T04:01:58.526Z,95.58
2023-04-13T04:04:25.384Z,96.33
2023-04-13T04:06:52.109Z,96.61
2023-04-13T04:09:18.557Z,96.63
2023-04-13T04:11:45.524Z,96.69
2023-04-13T04:14:12.015Z,96.79
2023-04-13T04:16:38.543Z,96.80
2023-04-13T04:19:05.026Z,96.62
2023-04-13T04:21:34.345Z,96.71
2023-04-13T04:24:06.112Z,96.51
2023-04-13T04:26:32.644Z,96.30
2023-04-13T04:29:07.087Z,96.02
2023-04-13T04:31:36.870Z,96.20
2023-04-13T04:34:04.296Z,96.04
2023-04-13T04:36:30.901Z,96.24
2023-04-13T04:39:02.147Z,96.50
2023-04-13T04:41:29.313Z,96.55
2023-04-13T04:43:56.720Z,96.81
2023-04-13T04:46:27.260Z,97.01
2023-04-13T04:48:54.200Z,97.29
2023-04-13T04:51:24.799Z,96.71
2023-04-13T04:53:52.911Z,96.80
2023-04-13T04:56:19.664Z,97.11
2023-04-13T04:58:46.327Z,97.08
2023-04-13T05:01:12.888Z,97.01
2023-04-13T05:03:39.381Z,97.05
2023-04-13T05:06:06.258Z,97.04
2023-04-13T05:08:33.058Z,97.10
2023-04-13T05:10:59.596Z,97.16
2023-04-13T05:13:26.068Z,97.06
2023-04-13T05:15:52.611Z,97.22
2023-04-13T05:18:19.204Z,97.56
2023-04-13T05:20:45.872Z,97.82
2023-04-13T05:23:12.534Z,97.70
2023-04-13T05:25:39.512Z,98.02
2023-04-13T05:28:06.280Z,98.14
2023-04-13T05:30:33.005Z,97.80
2023-04-13T05:33:02.064Z,97.90
2023-04-13T05:35:28.584Z,97.72
2023-04-13T05:37:57.063Z,98.00
2023-04-13T05:40:23.862Z,98.17
2023-04-13T05:42:50.243Z,98.29
2023-04-13T05:45:16.790Z,98.19
2023-04-13T05:47:45.371Z,97.91
2023-04-13T05:50:12.847Z,97.95
2023-04-13T05:52:39.312Z,97.50
2023-04-13T05:55:06.926Z,97.66
2023-04-13T05:57:33.390Z,97.18
2023-04-13T05:59:59.839Z,97.36
2023-04-13T06:02:26.795Z,97.72
2023-04-13T06:04:55.190Z,97.80
2023-04-13T06:07:22.254Z,97.55
2023-04-13T06:09:48.813Z,96.45
2023-04-13T06:12:15.959Z,95.65
2023-04-13T06:14:43.015Z,95.01
2023-04-13T06:17:09.568Z,93.47
2023-04-13T06:19:36.182Z,93.12
2023-04-13T06:22:02.682Z,92.53
2023-04-13T06:24:29.139Z,93.15
2023-04-13T06:26:55.581Z,93.18
2023-04-13T06:29:22.047Z,92.79
2023-04-13T06:31:48.529Z,92.11
2023-04-13T06:34:15.439Z,91.00
2023-04-13T06:36:41.970Z,90.56
2023-04-13T06:39:09.223Z,90.15
2023-04-13T06:41:36.014Z,88.64
2023-04-13T06:44:02.519Z,89.22
2023-04-13T06:46:38.522Z,89.22
2023-04-13T06:49:05.305Z,88.56
2023-04-13T06:51:31.976Z,87.30
2023-04-13T06:53:58.427Z,86.98
2023-04-13T06:56:24.972Z,86.73
2023-04-13T06:58:51.566Z,86.51
2023-04-13T07:01:18.047Z,86.20
2023-04-13T07:03:44.799Z,86.24
2023-04-13T07:06:11.630Z,85.74
2023-04-13T07:08:38.172Z,85.44
2023-04-13T07:11:04.784Z,85.36
2023-04-13T07:13:34.207Z,84.47
2023-04-13T07:16:00.857Z,84.12
2023-04-13T07:18:27.326Z,83.71
2023-04-13T07:20:53.743Z,82.69
2023-04-13T07:23:20.224Z,82.46
2023-04-13T07:25:46.873Z,82.74
2023-04-13T07:28:13.383Z,81.20
2023-04-13T07:30:46.817Z,82.49
2023-04-13T07:33:13.853Z,81.30
2023-04-13T07:35:40.664Z,81.11
2023-04-13T07:38:07.234Z,79.20
2023-04-13T07:40:35.742Z,78.41
2023-04-13T07:43:10.117Z,77.64
2023-04-13T07:45:36.670Z,77.51
2023-04-13T07:48:03.318Z,77.24
2023-04-13T07:50:30.061Z,77.37
2023-04-13T07:52:56.645Z,74.04
2023-04-13T07:55:23.141Z,76.05
2023-04-13T07:57:49.681Z,74.82
2023-04-13T08:00:18.331Z,75.25
2023-04-13T08:02:44.973Z,73.96
2023-04-13T08:05:12.477Z,73.21
2023-04-13T08:07:38.983Z,73.49
2023-04-13T08:10:06.660Z,71.80
2023-04-13T08:12:33.193Z,72.50
2023-04-13T08:14:59.587Z,72.21
2023-04-13T08:17:26.452Z,72.53
2023-04-13T08:19:52.934Z,72.90
2023-04-13T08:22:19.830Z,71.89
2023-04-13T08:24:46.338Z,71.70
2023-04-13T08:27:12.856Z,71.41
2023-04-13T08:29:39.328Z,70.80
2023-04-13T08:32:06.148Z,70.10
2023-04-13T08:34:32.667Z,70.16
2023-04-13T08:36:59.147Z,70.40
2023-04-13T08:39:25.998Z,69.93
2023-04-13T08:41:52.557Z,69.80
2023-04-13T08:44:19.122Z,70.51
2023-04-13T08:46:46.646Z,69.24
2023-04-13T08:49:13.262Z,69.29
2023-04-13T08:51:42.081Z,68.25
2023-04-13T08:54:08.754Z,68.60
2023-04-13T08:56:46.367Z,68.87
2023-04-13T08:59:16.020Z,67.77
2023-04-13T09:01:45.510Z,67.90
2023-04-13T09:04:14.149Z,67.82
2023-04-13T09:06:43.007Z,67.02
2023-04-13T09:09:14.193Z,64.35
2023-04-13T09:11:42.246Z,63.12
2023-04-13T09:14:09.995Z,62.72
2023-04-13T09:16:41.097Z,63.28
2023-04-13T09:19:11.403Z,62.13
2023-04-13T09:21:41.045Z,62.10
2023-04-13T09:24:08.515Z,62.39
2023-04-13T09:26:42.966Z,61.98
2023-04-13T09:29:14.141Z,61.61
2023-04-13T09:31:42.920Z,58.79
2023-04-13T09:34:11.245Z,57.13
2023-04-13T09:36:46.614Z,57.35
2023-04-13T09:39:28.385Z,58.47
2023-04-13T09:41:55.354Z,55.48
2023-04-13T09:44:28.189Z,55.65
2023-04-13T09:47:02.089Z,56.23
2023-04-13T09:49:42.732Z,55.93
2023-04-13T09:52:25.101Z,55.32
2023-04-13T09:54:57.772Z,55.56
2023-04-13T09:57:32.095Z,55.35
2023-04-13T10:00:01.615Z,53.46
2023-04-13T10:02:28.743Z,52.97
2023-04-13T10:04:55.828Z,53.42
2023-04-13T10:07:26.729Z,53.20
2023-04-13T10:09:57.961Z,53.98
2023-04-13T10:12:26.878Z,53.62
2023-04-13T10:15:01.575Z,53.28
2023-04-13T10:17:56.001Z,50.85
2023-04-13T10:20:23.007Z,50.28
2023-04-13T10:22:50.885Z,49.17
2023-04-13T10:25:31.971Z,49.91
2023-04-13T10:28:00.639Z,49.87
2023-04-13T10:30:28.120Z,49.64
2023-04-13T10:33:05.795Z,49.33
2023-04-13T10:35:37.055Z,49.93
2023-04-13T10:38:04.261Z,50.35
2023-04-13T10:40:42.192Z,50.99
2023-04-13T10:43:08.697Z,52.71
2023-04-13T10:45:37.753Z,52.55
2023-04-13T10:48:04.598Z,51.46
2023-04-13T10:50:31.396Z,48.55
2023-04-13T10:53:05.655Z,49.22
2023-04-13T10:55:35.567Z,50.98
2023-04-13T10:58:03.260Z,52.34
2023-04-13T11:00:42.325Z,53.02
2023-04-13T11:03:12.549Z,56.31
2023-04-13T11:05:39.799Z,58.73
2023-04-13T11:08:06.783Z,61.90
2023-04-13T11:10:33.557Z,62.47
2023-04-13T11:13:00.091Z,63.57
2023-04-13T11:15:30.506Z,62.75
2023-04-13T11:17:58.899Z,61.87
2023-04-13T11:20:37.649Z,58.46
2023-04-13T11:23:06.383Z,58.44
2023-04-13T11:25:36.168Z,53.89
2023-04-13T11:28:04.079Z,52.77
2023-04-13T11:30:32.392Z,52.54
2023-04-13T11:33:01.321Z,53.04
2023-04-13T11:35:28.047Z,53.74
2023-04-13T11:37:56.019Z,54.28
2023-04-13T11:40:27.323Z,54.55
2023-04-13T11:42:55.850Z,54.20
2023-04-13T11:45:25.821Z,55.55
2023-04-13T11:47:53.358Z,55.78
2023-04-13T11:50:21.457Z,56.60
2023-04-13T11:52:51.279Z,55.67
2023-04-13T11:55:23.809Z,55.12
2023-04-13T11:57:52.967Z,53.21
2023-04-13T12:00:27.252Z,52.54
2023-04-13T12:05:27.862Z,50.58
2023-04-13T12:07:57.536Z,50.18
2023-04-13T12:10:39.097Z,49.91
2023-04-13T12:16:04.947Z,49.27
2023-04-13T12:18:37.230Z,47.67
2023-04-13T12:21:05.706Z,48.04
2023-04-13T12:23:32.857Z,46.08
2023-04-13T12:28:49.850Z,45.88
2023-04-13T12:31:16.475Z,46.21
2023-04-13T12:33:43.005Z,45.12
2023-04-13T12:36:12.565Z,44.88
2023-04-13T12:38:39.324Z,46.52
2023-04-13T12:41:09.928Z,46.75
2023-04-13T12:43:36.589Z,45.70
2023-04-13T12:46:03.086Z,45.51
2023-04-13T12:48:30.813Z,44.10
2023-04-13T12:50:57.267Z,44.57
2023-04-13T12:53:23.823Z,44.53
2023-04-13T12:55:50.405Z,43.90
2023-04-13T12:58:16.878Z,44.12
2023-04-13T13:00:43.351Z,44.48
2023-04-13T13:03:14.950Z,44.71
2023-04-13T13:05:41.979Z,44.83
2023-04-13T13:08:09.191Z,45.88
2023-04-13T13:10:37.318Z,45.91
2023-04-13T13:13:04.149Z,45.96
2023-04-13T13:15:31.880Z,46.13
2023-04-13T13:18:00.767Z,46.76
2023-04-13T13:20:27.533Z,47.34
2023-04-13T13:22:54.171Z,47.78
2023-04-13T13:25:21.157Z,47.15
2023-04-13T13:30:18.140Z,47.14
2023-04-13T13:32:44.748Z,47.41
2023-04-13T13:35:11.691Z,46.45
2023-04-13T13:37:39.668Z,46.48
2023-04-13T13:40:12.811Z,45.85
2023-04-13T13:42:50.821Z,46.68
2023-04-13T13:45:18.673Z,46.03
2023-04-13T13:47:57.783Z,45.68
2023-04-13T13:50:24.383Z,45.96
2023-04-13T13:53:03.290Z,46.32
2023-04-13T13:55:31.485Z,45.88
2023-04-13T13:57:58.166Z,44.91
2023-04-13T14:00:25.742Z,45.21
2023-04-13T14:02:53.035Z,45.68
2023-04-13T14:05:21.750Z,45.23
2023-04-13T14:07:48.266Z,45.54
2023-04-13T14:10:14.732Z,45.80
2023-04-13T14:12:45.152Z,49.10
2023-04-13T14:15:12.876Z,52.38
2023-04-13T14:17:40.310Z,56.23
2023-04-13T14:20:11.762Z,57.50
2023-04-13T14:22:39.719Z,60.81
2023-04-13T14:25:07.405Z,61.29
2023-04-13T14:27:34.023Z,63.33
2023-04-13T14:30:01.884Z,63.71
2023-04-13T14:32:29.076Z,65.49
2023-04-13T14:34:59.940Z,68.65
2023-04-13T14:37:29.645Z,71.32
2023-04-13T14:39:56.103Z,74.54
2023-04-13T14:42:24.521Z,75.08
2023-04-13T14:44:51.872Z,73.63
2023-04-13T14:47:19.092Z,73.72
2023-04-13T14:49:46.378Z,73.48
2023-04-13T14:52:14.219Z,69.82
2023-04-13T14:54:40.752Z,68.53
2023-04-13T14:57:07.283Z,67.12
2023-04-13T14:59:33.763Z,64.63
2023-04-13T15:02:00.883Z,64.81
2023-04-13T15:04:28.146Z,62.17
2023-04-13T15:06:54.756Z,61.08
2023-04-13T15:09:21.912Z,61.49
2023-04-13T15:11:49.184Z,61.13
2023-04-13T15:14:15.634Z,60.14
2023-04-13T15:16:42.136Z,61.21
2023-04-13T15:19:08.796Z,61.04
2023-04-13T15:21:36.213Z,59.35
2023-04-13T15:24:02.733Z,56.29
2023-04-13T15:26:29.781Z,56.76
2023-04-13T15:28:56.244Z,56.49
2023-04-13T15:31:22.938Z,56.92
2023-04-13T15:33:49.332Z,57.14
2023-04-13T15:36:16.566Z,58.10
2023-04-13T15:38:43.199Z,58.55
2023-04-13T15:41:11.090Z,57.72
2023-04-13T15:43:38.480Z,57.58
2023-04-13T15:46:05.157Z,56.83
2023-04-13T15:48:31.893Z,55.88
2023-04-13T15:51:00.998Z,53.71
2023-04-13T15:53:28.058Z,54.43
2023-04-13T15:55:54.536Z,53.73
2023-04-13T15:58:21.664Z,54.33
2023-04-13T16:01:03.654Z,53.85
2023-04-13T16:03:30.996Z,53.29
2023-04-13T16:05:57.743Z,53.54
2023-04-13T16:08:24.314Z,51.91
2023-04-13T16:10:51.175Z,52.11
2023-04-13T16:13:20.162Z,51.31
2023-04-13T16:15:55.580Z,51.20
2023-04-13T16:18:30.050Z,50.30
2023-04-13T16:21:02.357Z,49.77
2023-04-13T16:23:29.671Z,50.34
2023-04-13T16:25:56.101Z,50.71
2023-04-13T16:28:22.655Z,51.35
2023-04-13T16:30:49.449Z,52.38
2023-04-13T16:33:16.065Z,52.32
2023-04-13T16:35:42.555Z,53.60
2023-04-13T16:38:09.007Z,56.48
2023-04-13T16:40:35.983Z,58.23
2023-04-13T16:43:04.162Z,60.80
2023-04-13T16:45:30.880Z,62.58
2023-04-13T16:47:57.383Z,64.30
2023-04-13T16:50:28.513Z,65.51
2023-04-13T16:52:56.648Z,66.81
2023-04-13T16:55:23.263Z,67.76
2023-04-13T16:57:50.548Z,68.81
2023-04-13T17:00:18.079Z,70.13
2023-04-13T17:02:44.897Z,70.68
2023-04-13T17:05:12.549Z,71.11
2023-04-13T17:07:40.981Z,70.59
2023-04-13T17:10:08.843Z,71.42
2023-04-13T17:12:35.725Z,70.28
2023-04-13T17:15:02.233Z,70.05
2023-04-13T17:17:28.731Z,69.14
2023-04-13T17:19:55.423Z,68.10
2023-04-13T17:22:22.549Z,67.59
2023-04-13T17:24:49.544Z,67.51
2023-04-13T17:27:19.106Z,67.70
2023-04-13T17:29:45.614Z,67.50
2023-04-13T17:32:12.216Z,66.76
2023-04-13T17:34:38.821Z,67.32
2023-04-13T17:37:06.835Z,67.57
2023-04-13T17:39:35.093Z,66.38
2023-04-13T17:42:02.060Z,66.43
2023-04-13T17:44:28.618Z,66.71
2023-04-13T17:46:55.086Z,66.69
2023-04-13T17:49:22.068Z,66.40
2023-04-13T17:51:49.007Z,66.99
2023-04-13T17:54:21.126Z,67.09
2023-04-13T17:56:47.553Z,67.26
2023-04-13T17:59:16.788Z,68.04
2023-04-13T18:01:43.736Z,68.08
2023-04-13T18:04:14.653Z,68.95
2023-04-13T18:06:41.343Z,68.72
2023-04-13T18:09:18.226Z,69.30
2023-04-13T18:11:44.776Z,69.68
2023-04-13T18:14:15.982Z,70.28
2023-04-13T18:16:42.664Z,71.19
2023-04-13T18:19:09.199Z,71.52
2023-04-13T18:21:37.054Z,72.10
2023-04-13T18:24:03.924Z,72.99
2023-04-13T18:26:30.549Z,73.17
2023-04-13T18:28:56.978Z,73.74
2023-04-13T18:31:23.680Z,74.44
2023-04-13T18:33:50.269Z,74.56
2023-04-13T18:36:17.836Z,74.96
2023-04-13T18:38:45.499Z,75.27
2023-04-13T18:41:12.771Z,75.75
2023-04-13T18:43:39.788Z,75.81
2023-04-13T18:46:07.740Z,74.92
2023-04-13T18:48:34.647Z,74.40
2023-04-13T18:51:04.025Z,74.18
2023-04-13T18:53:30.997Z,73.91
2023-04-13T18:55:58.254Z,74.05
2023-04-13T18:58:24.709Z,74.30
2023-04-13T19:00:51.287Z,74.11
2023-04-13T19:03:20.137Z,74.74
2023-04-13T19:05:47.229Z,74.71
2023-04-13T19:08:13.912Z,75.19
2023-04-13T19:10:41.607Z,75.00
2023-04-13T19:13:08.123Z,75.36
2023-04-13T19:15:35.649Z,75.73
2023-04-13T19:18:04.170Z,76.04
2023-04-13T19:20:31.108Z,75.92
2023-04-13T19:22:57.673Z,76.00
2023-04-13T19:25:24.179Z,76.16
2023-04-13T19:27:51.013Z,76.30
2023-04-13T19:30:19.092Z,76.14
2023-04-13T19:32:47.885Z,76.37
2023-04-13T19:35:14.792Z,76.60
2023-04-13T19:37:41.805Z,76.78
2023-04-13T19:40:15.354Z,76.93
2023-04-13T19:42:44.012Z,77.07
2023-04-13T19:45:12.187Z,77.20
2023-04-13T19:47:39.807Z,76.92
2023-04-13T19:50:09.333Z,77.47
2023-04-13T19:52:36.126Z,77.40
2023-04-13T19:55:02.858Z,77.57
2023-04-13T19:57:30.569Z,77.55
2023-04-13T19:59:57.622Z,77.91
2023-04-13T20:02:24.281Z,78.53
2023-04-13T20:04:51.049Z,78.92
2023-04-13T20:07:17.877Z,79.29
2023-04-13T20:09:44.698Z,79.24
2023-04-13T20:12:12.014Z,79.63
2023-04-13T20:14:41.922Z,80.64
2023-04-13T20:17:09.004Z,79.17
2023-04-13T20:19:36.371Z,79.95
2023-04-13T20:22:04.218Z,80.47
2023-04-13T20:24:31.508Z,80.81
2023-04-13T20:26:58.634Z,80.96
2023-04-13T20:29:26.963Z,81.46
2023-04-13T20:31:54.369Z,81.82
2023-04-13T20:34:21.839Z,82.05
2023-04-13T20:36:48.320Z,82.55
2023-04-13T20:39:14.968Z,83.04
2023-04-13T20:41:41.459Z,82.84
2023-04-13T20:44:09.939Z,82.96
2023-04-13T20:46:37.520Z,83.57
2023-04-13T20:49:05.032Z,83.21
2023-04-13T20:51:33.650Z,83.85
2023-04-13T20:54:02.890Z,83.86
2023-04-13T20:56:29.894Z,84.37
2023-04-13T20:58:57.722Z,84.05
2023-04-13T21:01:27.997Z,84.44
2023-04-13T21:03:54.460Z,84.84
2023-04-13T21:06:22.892Z,84.70
2023-04-13T21:08:49.598Z,85.27
2023-04-13T21:11:16.219Z,85.40
2023-04-13T21:13:42.843Z,86.16
2023-04-13T21:16:11.103Z,86.41
2023-04-13T21:18:37.638Z,87.17
2023-04-13T21:21:06.142Z,87.02
2023-04-13T21:23:32.789Z,86.64
2023-04-13T21:25:59.282Z,87.09
2023-04-13T21:28:26.278Z,86.73
2023-04-13T21:30:52.741Z,86.70
2023-04-13T21:33:19.207Z,86.71
2023-04-13T21:35:45.692Z,86.87
2023-04-13T21:38:12.177Z,86.87
2023-04-13T21:40:38.691Z,87.14
2023-04-13T21:43:05.285Z,87.14
2023-04-13T21:45:32.106Z,87.12
2023-04-13T21:47:58.736Z,87.07
2023-04-13T21:50:25.224Z,86.75
2023-04-13T21:52:51.873Z,87.14
2023-04-13T21:55:18.500Z,86.88
2023-04-13T21:57:45.873Z,87.08
2023-04-13T22:00:14.353Z,87.12
2023-04-13T22:02:41.674Z,87.55
2023-04-13T22:05:09.975Z,87.76
2023-04-13T22:07:42.386Z,87.57
2023-04-13T22:10:12.911Z,87.72
2023-04-13T22:12:39.383Z,87.48
2023-04-13T22:15:06.436Z,87.75
2023-04-13T22:17:32.913Z,87.73
2023-04-13T22:19:59.428Z,87.76
2023-04-13T22:22:25.826Z,87.63
2023-04-13T22:24:53.101Z,87.75
2023-04-13T22:27:19.631Z,87.65
2023-04-13T22:29:47.412Z,88.13
2023-04-13T22:32:14.187Z,88.43
2023-04-13T22:34:40.603Z,88.47
2023-04-13T22:37:07.101Z,88.76
2023-04-13T22:39:33.557Z,88.81
2023-04-13T22:42:00.044Z,88.79
2023-04-13T22:44:32.420Z,89.20
2023-04-13T22:46:58.981Z,88.44
2023-04-13T22:49:25.575Z,88.87
2023-04-13T22:51:51.993Z,89.27
2023-04-13T22:54:18.452Z,89.60
2023-04-13T22:56:44.849Z,89.28
2023-04-13T22:59:11.238Z,89.39
2023-04-13T23:01:37.777Z,89.27
2023-04-13T23:04:04.764Z,89.32
2023-04-13T23:06:31.644Z,89.48
2023-04-13T23:08:59.483Z,89.58
2023-04-13T23:11:26.168Z,89.60
2023-04-13T23:13:56.637Z,89.84
2023-04-13T23:16:23.241Z,89.72
2023-04-13T23:18:49.744Z,90.01
2023-04-13T23:21:16.314Z,90.10
2023-04-13T23:23:42.834Z,90.05
2023-04-13T23:26:09.333Z,89.76
2023-04-13T23:28:35.941Z,89.56
2023-04-13T23:31:08.731Z,90.02
2023-04-13T23:33:36.028Z,89.65
2023-04-13T23:36:03.013Z,90.38
2023-04-13T23:38:30.732Z,90.11
2023-04-13T23:40:57.739Z,90.41
2023-04-13T23:43:24.955Z,90.75
2023-04-13T23:45:52.901Z,90.85
2023-04-13T23:48:21.291Z,90.79
2023-04-13T23:50:48.191Z,90.56
2023-04-13T23:53:15.447Z,90.81
2023-04-13T23:55:42.323Z,90.67
2023-04-13T23:58:08.787Z,90.62
